Oushou Maru — JD2052 — position and weather

sailwx.info

Track history (hours):
 
Tides and Currents Weather Stations Pressure Air Temp Water Temp Dewpoint Dewpoint Depression Visibility Wind Speed Wind Dir Waves Ship Positions

Oushou Maru

Last reported at 2017-Sep-21 05:47 UTC. Time now 2017-Sep-23 07:27 UTC.
Position N 35°07' E 139°42'.

Length 62 m.

Type: Tanker. MMSI: 431401998.

Date/timePositionNaut miles runAvg speedWind from/ knotsBaromVisibWave heightAir tempDewpointWater temp
2017-Sep-21 05:47N 35°07' E 139°42'311.0
2017-Sep-21 05:30N 35°10' E 139°44'610.3
2017-Sep-21 04:57N 35°15' E 139°46'510.4
2017-Sep-21 04:30N 35°19' E 139°43'5 9.8
2017-Sep-21 04:00N 35°24' E 139°43'510.7
2017-Sep-21 03:30N 35°28' E 139°48'  
2017-Sep-15 07:38N 35°30' E 139°52'212.1
2017-Sep-15 07:30N 35°30' E 139°50'5 9.4
2017-Sep-15 06:59N 35°31' E 139°44'0 0.0
2017-Sep-15 06:23N 35°31' E 139°44'0 0.0
2017-Sep-15 05:59N 35°31' E 139°44'0 0.0
2017-Sep-15 05:29N 35°31' E 139°44'0 0.0
2017-Sep-15 04:59N 35°31' E 139°44'0 0.0
2017-Sep-15 04:23N 35°31' E 139°44'0 0.0
2017-Sep-15 03:50N 35°31' E 139°44'0 1.3
2017-Sep-15 03:29N 35°31' E 139°45'4 6.6
2017-Sep-15 02:55N 35°30' E 139°49'1 2.8
2017-Sep-15 02:30N 35°30' E 139°51'3 0.1
2017-Sep-13 09:34N 35°30' E 139°54'111.8
2017-Sep-13 09:27N 35°30' E 139°52'511.7
2017-Sep-13 09:00N 35°30' E 139°46'1 2.3
2017-Sep-13 08:28N 35°31' E 139°44'0 0.0
2017-Sep-13 07:58N 35°31' E 139°44'0 0.0
2017-Sep-13 07:28N 35°31' E 139°44'0 0.0
2017-Sep-13 06:58N 35°31' E 139°44'0 0.0
2017-Sep-13 06:28N 35°31' E 139°44'0 0.0
2017-Sep-13 05:58N 35°31' E 139°44'0 0.0
2017-Sep-13 05:22N 35°31' E 139°44'2 4.6
2017-Sep-13 04:59N 35°30' E 139°47'3 6.5
2017-Sep-13 04:31N 35°31' E 139°50'0 0.1
2017-Sep-13 03:12N 35°31' E 139°50'2 0.0
2017-Sep-11 07:35N 35°32' E 139°52'113.1
2017-Sep-11 07:29N 35°31' E 139°51'  
Track history (hours):
 
Tides and Currents Weather Stations Pressure Air Temp Water Temp Dewpoint Dewpoint Depression Visibility Wind Speed Wind Dir Waves Ship Positions

Oushou Maru

Last reported at 2017-Sep-21 05:47 UTC. Time now 2017-Sep-23 07:27 UTC.
Position N 35°07' E 139°42'.

Length 62 m.

Type: Tanker. MMSI: 431401998.

Date/timePositionNaut miles runAvg speedWind from/ knotsBaromVisibWave heightAir tempDewpointWater temp
2017-Sep-21 05:47N 35°07' E 139°42'311.0
2017-Sep-21 05:30N 35°10' E 139°44'610.3
2017-Sep-21 04:57N 35°15' E 139°46'510.4
2017-Sep-21 04:30N 35°19' E 139°43'5 9.8
2017-Sep-21 04:00N 35°24' E 139°43'510.7
2017-Sep-21 03:30N 35°28' E 139°48'  
2017-Sep-15 07:38N 35°30' E 139°52'212.1
2017-Sep-15 07:30N 35°30' E 139°50'5 9.4
2017-Sep-15 06:59N 35°31' E 139°44'0 0.0
2017-Sep-15 06:23N 35°31' E 139°44'0 0.0
2017-Sep-15 05:59N 35°31' E 139°44'0 0.0
2017-Sep-15 05:29N 35°31' E 139°44'0 0.0
2017-Sep-15 04:59N 35°31' E 139°44'0 0.0
2017-Sep-15 04:23N 35°31' E 139°44'0 0.0
2017-Sep-15 03:50N 35°31' E 139°44'0 1.3
2017-Sep-15 03:29N 35°31' E 139°45'4 6.6
2017-Sep-15 02:55N 35°30' E 139°49'1 2.8
2017-Sep-15 02:30N 35°30' E 139°51'3 0.1
2017-Sep-13 09:34N 35°30' E 139°54'111.8
2017-Sep-13 09:27N 35°30' E 139°52'511.7
2017-Sep-13 09:00N 35°30' E 139°46'1 2.3
2017-Sep-13 08:28N 35°31' E 139°44'0 0.0
2017-Sep-13 07:58N 35°31' E 139°44'0 0.0
2017-Sep-13 07:28N 35°31' E 139°44'0 0.0
2017-Sep-13 06:58N 35°31' E 139°44'0 0.0
2017-Sep-13 06:28N 35°31' E 139°44'0 0.0
2017-Sep-13 05:58N 35°31' E 139°44'0 0.0
2017-Sep-13 05:22N 35°31' E 139°44'2 4.6
2017-Sep-13 04:59N 35°30' E 139°47'3 6.5
2017-Sep-13 04:31N 35°31' E 139°50'0 0.1
2017-Sep-13 03:12N 35°31' E 139°50'2 0.0
2017-Sep-11 07:35N 35°32' E 139°52'113.1
2017-Sep-11 07:29N 35°31' E 139°51'  

Dump ship's entire track history